Time;durP1;ratioP1;P1;durP2;ratioP2;P2;SDS_P1;SDS_P2;PMS_P1;PMS_P2;Temp;Humidity;BMP_temperature;BMP_pressure;BME280_temperature;BME280_humidity;BME280_pressure;Samples;Min_cycle;Max_cycle;Signal;HPM_P1;HPM_P2
2021/12/17 00:01:02;;;;;;;29.20;8.30;;;5.70;99.90;;;;;;5084036;28;22859;-68
2021/12/17 00:03:52;;;;;;;29.27;8.90;;;5.80;99.90;;;;;;5084980;28;20714;-70
2021/12/17 00:06:47;;;;;;;31.57;9.13;;;5.80;99.90;;;;;;5096153;28;20222;-68
2021/12/17 00:09:37;;;;;;;31.73;9.37;;;5.80;99.90;;;;;;5097498;28;20591;-70
2021/12/17 00:12:27;;;;;;;32.97;8.93;;;5.70;99.90;;;;;;5099350;28;20706;-70
2021/12/17 00:15:16;;;;;;;25.47;8.50;;;5.70;99.90;;;;;;5081035;28;21011;-69
2021/12/17 00:18:12;;;;;;;31.63;8.97;;;5.70;99.90;;;;;;5094438;28;20226;-69
2021/12/17 00:49:42;;;;;;;28.53;7.90;;;5.80;99.90;;;;;;5080018;28;20211;-69
2021/12/17 00:52:33;;;;;;;29.27;7.97;;;5.80;99.90;;;;;;5085405;28;20210;-68
2021/12/17 00:55:25;;;;;;;33.73;8.73;;;5.70;99.90;;;;;;5084281;28;20575;-68
2021/12/17 00:58:13;;;;;;;25.30;7.70;;;5.70;99.90;;;;;;5089464;28;20230;-68
2021/12/17 01:01:02;;;;;;;26.30;7.80;;;5.70;99.90;;;;;;5104595;28;20230;-67
2021/12/17 01:03:55;;;;;;;26.47;7.80;;;5.70;99.90;;;;;;5085657;28;20216;-69
2021/12/17 01:06:44;;;;;;;27.67;7.83;;;5.70;99.90;;;;;;5080491;28;20218;-69
2021/12/17 01:09:33;;;;;;;28.67;8.60;;;5.70;99.90;;;;;;5084238;27;20587;-69
2021/12/17 01:12:25;;;;;;;26.63;7.43;;;5.70;99.90;;;;;;5085338;28;20223;-69
2021/12/17 01:15:28;;;;;;;28.60;7.93;;;5.70;99.90;;;;;;5085032;28;20295;-70
2021/12/17 01:18:54;;;;;;;28.50;9.33;;;5.80;99.90;;;;;;5085724;28;20226;-69
2021/12/17 01:21:59;;;;;;;33.00;8.60;;;5.80;99.90;;;;;;5081632;28;20732;-70
2021/12/17 01:24:56;;;;;;;22.00;7.50;;;5.80;99.90;;;;;;5079484;28;20206;-67
2021/12/17 01:41:51;;;;;;;30.00;7.77;;;5.60;99.90;;;;;;5091598;28;20316;-68
2021/12/17 01:44:46;;;;;;;28.53;7.20;;;5.70;99.90;;;;;;5085504;28;20220;-68
2021/12/17 01:47:35;;;;;;;33.83;7.67;;;5.70;99.90;;;;;;5095421;28;21278;-69
2021/12/17 01:56:52;;;;;;;29.30;6.70;;;5.70;99.90;;;;;;5095594;28;20411;-70
2021/12/17 01:59:41;;;;;;;29.67;6.60;;;5.80;99.90;;;;;;5083183;28;20217;-69
2021/12/17 02:02:40;;;;;;;31.97;7.17;;;5.80;99.90;;;;;;5082216;28;20683;-69
2021/12/17 02:05:30;;;;;;;27.60;7.70;;;5.80;99.90;;;;;;5098964;28;20711;-68
2021/12/17 02:08:19;;;;;;;23.50;7.30;;;5.80;99.90;;;;;;5094609;28;20222;-69
2021/12/17 02:21:03;;;;;;;22.83;7.03;;;5.70;99.90;;;;;;5084981;28;21794;-67
2021/12/17 02:30:48;;;;;;;20.70;6.07;;;5.70;99.90;;;;;;5085211;28;20289;-68
2021/12/17 02:33:37;;;;;;;25.57;6.47;;;5.80;99.90;;;;;;5097718;28;20587;-69
2021/12/17 02:36:31;;;;;;;32.47;6.60;;;5.80;99.90;;;;;;5083056;28;20226;-69
2021/12/17 02:39:43;;;;;;;23.07;6.30;;;5.80;99.90;;;;;;5096745;28;20227;-68
2021/12/17 02:45:30;;;;;;;21.67;5.87;;;5.80;99.90;;;;;;5082875;28;20245;-68
2021/12/17 02:45:44;;;;;;;30.43;6.80;;;5.80;99.90;;;;;;5079353;28;20219;-69
2021/12/17 02:48:34;;;;;;;22.57;5.93;;;5.80;99.90;;;;;;5081116;28;20323;-72
2021/12/17 02:51:23;;;;;;;25.67;6.13;;;5.80;99.90;;;;;;5092174;28;20231;-68
2021/12/17 02:54:14;;;;;;;25.77;6.63;;;5.80;99.90;;;;;;5082179;28;20690;-68
2021/12/17 02:57:03;;;;;;;24.60;7.07;;;5.80;99.90;;;;;;5096833;28;20231;-72
2021/12/17 02:59:53;;;;;;;27.50;6.50;;;5.80;99.90;;;;;;5098767;28;20214;-67
2021/12/17 03:02:42;;;;;;;24.03;6.07;;;5.80;99.90;;;;;;5092806;28;20219;-68
2021/12/17 03:05:31;;;;;;;25.23;6.57;;;5.80;99.90;;;;;;5101806;28;20268;-67
2021/12/17 03:08:20;;;;;;;25.80;6.77;;;5.80;99.90;;;;;;5087883;28;20219;-69
2021/12/17 03:11:13;;;;;;;23.07;6.20;;;5.70;99.90;;;;;;5099774;27;20231;-70
2021/12/17 03:14:02;;;;;;;25.57;6.50;;;5.70;99.90;;;;;;5086201;28;23117;-69
2021/12/17 03:17:00;;;;;;;26.40;7.00;;;5.80;99.90;;;;;;5099850;28;20233;-69
2021/12/17 03:25:59;;;;;;;24.57;6.10;;;5.80;99.90;;;;;;5080155;28;20218;-68
2021/12/17 03:28:52;;;;;;;21.03;5.73;;;5.80;99.90;;;;;;5085081;28;20219;-69
2021/12/17 03:31:42;;;;;;;22.47;6.53;;;5.80;99.90;;;;;;5087004;28;20218;-69
2021/12/17 03:34:31;;;;;;;25.90;6.77;;;5.80;99.90;;;;;;5089789;28;20219;-70
2021/12/17 03:37:19;;;;;;;25.70;6.60;;;5.90;99.90;;;;;;5086870;28;20736;-68
2021/12/17 03:40:16;;;;;;;27.73;6.50;;;5.80;99.90;;;;;;5085923;28;20721;-68
2021/12/17 03:43:11;;;;;;;28.17;6.30;;;5.80;99.90;;;;;;5098153;27;20310;-68
2021/12/17 03:46:01;;;;;;;23.10;6.60;;;5.80;99.90;;;;;;5089017;28;20222;-68
2021/12/17 03:48:50;;;;;;;25.33;7.40;;;5.80;99.90;;;;;;5082302;28;20214;-68
2021/12/17 03:51:49;;;;;;;23.30;6.53;;;5.80;99.90;;;;;;5101110;28;20218;-69
2021/12/17 03:54:39;;;;;;;25.40;6.70;;;5.90;99.90;;;;;;5086347;28;20248;-68
2021/12/17 03:57:29;;;;;;;27.97;6.33;;;5.70;99.90;;;;;;5085134;28;20227;-70
2021/12/17 04:00:18;;;;;;;22.57;5.43;;;5.80;99.90;;;;;;5103839;27;21061;-69
2021/12/17 04:03:12;;;;;;;24.90;6.50;;;5.80;99.90;;;;;;5084902;28;21004;-69
2021/12/17 04:06:07;;;;;;;27.10;6.40;;;5.80;99.90;;;;;;5083680;28;20657;-69
2021/12/17 04:09:19;;;;;;;21.63;5.30;;;5.80;99.90;;;;;;5097909;28;20750;-69
2021/12/17 04:12:21;;;;;;;24.47;5.73;;;5.70;99.90;;;;;;5088432;28;20242;-68
2021/12/17 04:15:35;;;;;;;20.17;5.60;;;5.70;99.90;;;;;;5097585;27;20573;-69
2021/12/17 04:18:26;;;;;;;23.57;6.67;;;5.70;99.90;;;;;;5086224;28;20249;-70
2021/12/17 04:21:15;;;;;;;21.90;5.40;;;5.70;99.90;;;;;;5098459;28;20659;-68
2021/12/17 04:24:06;;;;;;;23.37;6.00;;;5.80;99.90;;;;;;5083346;28;20246;-68
2021/12/17 04:26:56;;;;;;;22.13;5.40;;;5.70;99.90;;;;;;5083285;28;20223;-68
2021/12/17 04:29:45;;;;;;;23.23;6.27;;;5.70;99.90;;;;;;5097859;27;20310;-69
2021/12/17 04:32:38;;;;;;;21.67;5.50;;;5.80;99.90;;;;;;5089333;28;20215;-69
2021/12/17 04:35:29;;;;;;;24.23;5.30;;;5.80;99.90;;;;;;5100118;28;20245;-68
2021/12/17 04:38:22;;;;;;;22.67;5.83;;;5.70;99.90;;;;;;5090691;28;20734;-68
2021/12/17 04:41:38;;;;;;;19.13;5.43;;;5.70;99.90;;;;;;5084960;28;20253;-70
2021/12/17 04:44:33;;;;;;;25.47;7.00;;;5.70;99.90;;;;;;5086370;28;20219;-70
2021/12/17 04:57:28;;;;;;;16.87;4.93;;;5.60;99.90;;;;;;5093240;28;20226;-70
2021/12/17 05:00:21;;;;;;;29.57;6.70;;;5.70;99.90;;;;;;5081649;28;20933;-70
2021/12/17 05:03:19;;;;;;;22.47;6.13;;;5.60;99.90;;;;;;5082972;28;20226;-69
2021/12/17 05:06:14;;;;;;;20.67;5.60;;;5.60;99.90;;;;;;5098660;28;20234;-68
2021/12/17 05:09:23;;;;;;;18.43;5.53;;;5.60;99.90;;;;;;5098220;27;20559;-68
2021/12/17 05:18:27;;;;;;;22.27;5.70;;;5.60;99.90;;;;;;5082952;28;20218;-68
2021/12/17 05:21:23;;;;;;;19.77;5.40;;;5.60;99.90;;;;;;5083413;28;20349;-69
2021/12/17 05:24:14;;;;;;;28.63;6.50;;;5.70;99.90;;;;;;5082810;28;20595;-70
2021/12/17 05:27:04;;;;;;;21.93;5.87;;;5.60;99.90;;;;;;5082158;28;20341;-70
2021/12/17 05:29:58;;;;;;;22.63;5.87;;;5.60;99.90;;;;;;5098365;27;20241;-70
2021/12/17 05:32:47;;;;;;;25.77;5.77;;;5.60;99.90;;;;;;5087287;28;20219;-70
2021/12/17 05:35:36;;;;;;;29.47;5.93;;;5.50;99.90;;;;;;5086528;28;20234;-69
2021/12/17 05:38:32;;;;;;;25.90;7.13;;;5.50;99.90;;;;;;5083577;28;20283;-70
2021/12/17 05:41:21;;;;;;;26.33;5.90;;;5.60;99.90;;;;;;5086645;28;20226;-69
2021/12/17 05:44:24;;;;;;;22.23;5.50;;;5.50;99.90;;;;;;5086582;28;20233;-69
2021/12/17 05:47:13;;;;;;;18.47;5.40;;;5.60;99.90;;;;;;5083984;28;20214;-69
2021/12/17 05:50:03;;;;;;;24.00;5.83;;;5.60;99.90;;;;;;5083631;28;20227;-69
2021/12/17 05:52:52;;;;;;;21.87;5.17;;;5.60;99.90;;;;;;5099477;28;20222;-70
2021/12/17 05:55:47;;;;;;;24.50;6.07;;;5.50;99.90;;;;;;5082091;28;20229;-70
2021/12/17 05:58:36;;;;;;;22.50;5.50;;;5.50;99.90;;;;;;5088378;28;20234;-68
2021/12/17 06:01:25;;;;;;;21.37;5.97;;;5.50;99.90;;;;;;5097580;28;20226;-71
2021/12/17 06:04:15;;;;;;;17.27;5.40;;;5.50;99.90;;;;;;5095029;28;20210;-69
2021/12/17 06:07:11;;;;;;;24.30;6.10;;;5.60;99.90;;;;;;5087146;28;20699;-68
2021/12/17 06:10:04;;;;;;;21.83;5.97;;;5.60;99.90;;;;;;5083537;28;20231;-69
2021/12/17 06:13:02;;;;;;;21.03;5.90;;;5.50;99.90;;;;;;5085392;28;20385;-69
2021/12/17 06:15:51;;;;;;;20.00;5.13;;;5.50;99.90;;;;;;5086850;28;20769;-70
2021/12/17 06:18:40;;;;;;;22.93;6.47;;;5.60;99.90;;;;;;5091740;28;20579;-69
2021/12/17 06:21:29;;;;;;;23.33;6.30;;;5.50;99.90;;;;;;5085828;28;20290;-69
2021/12/17 06:24:18;;;;;;;23.93;6.57;;;5.50;99.90;;;;;;5084573;28;20309;-69
2021/12/17 06:27:11;;;;;;;18.53;5.83;;;5.40;99.90;;;;;;5096831;28;20756;-69
2021/12/17 06:30:05;;;;;;;21.77;6.10;;;5.50;99.90;;;;;;5083007;28;20223;-69
2021/12/17 06:32:54;;;;;;;21.20;6.20;;;5.50;99.90;;;;;;5082000;28;20214;-70
2021/12/17 06:35:44;;;;;;;18.40;5.77;;;5.50;99.90;;;;;;5087219;28;20678;-68
2021/12/17 06:38:34;;;;;;;17.37;6.13;;;5.50;99.90;;;;;;5086927;28;20237;-68
2021/12/17 06:41:24;;;;;;;20.90;6.20;;;5.40;99.90;;;;;;5085343;28;20358;-68
2021/12/17 06:44:16;;;;;;;22.63;6.53;;;5.40;99.90;;;;;;5098153;27;20307;-69
2021/12/17 06:47:11;;;;;;;21.90;6.30;;;5.40;99.90;;;;;;5083736;27;20330;-69
2021/12/17 07:00:40;;;;;;;22.97;6.30;;;5.40;99.90;;;;;;5098345;28;20219;-70
2021/12/17 07:10:38;;;;;;;22.30;6.90;;;5.40;99.90;;;;;;5089731;28;20788;-68
2021/12/17 07:23:11;;;;;;;22.97;6.17;;;5.40;99.90;;;;;;5084938;28;20222;-73
2021/12/17 07:35:53;;;;;;;21.33;6.53;;;5.40;99.90;;;;;;5086529;28;20577;-71
2021/12/17 07:38:48;;;;;;;23.83;6.50;;;5.40;99.90;;;;;;5083934;28;20226;-74
2021/12/17 07:42:03;;;;;;;24.63;6.70;;;5.30;99.90;;;;;;5105200;28;20760;-72
2021/12/17 07:45:11;;;;;;;22.60;6.83;;;5.40;99.90;;;;;;5103510;27;20222;-71
2021/12/17 07:48:20;;;;;;;19.53;6.73;;;5.40;99.90;;;;;;5095059;28;20302;-71
2021/12/17 07:51:31;;;;;;;17.73;6.83;;;5.50;99.90;;;;;;5098988;28;20222;-73
2021/12/17 07:54:23;;;;;;;22.90;7.37;;;5.50;99.90;;;;;;5078893;28;20251;-73
2021/12/17 07:57:12;;;;;;;25.37;6.90;;;5.50;99.90;;;;;;5097283;28;20246;-71
2021/12/17 08:00:01;;;;;;;27.80;8.40;;;5.50;99.90;;;;;;5103341;28;20221;-72
2021/12/17 08:02:51;;;;;;;25.87;8.57;;;5.50;99.90;;;;;;5085609;28;20225;-73
2021/12/17 08:06:03;;;;;;;24.10;7.67;;;5.50;99.90;;;;;;5097945;28;20230;-72
2021/12/17 08:09:00;;;;;;;22.17;7.20;;;5.60;99.90;;;;;;5083915;28;20222;-72
2021/12/17 08:11:55;;;;;;;22.20;8.20;;;5.50;99.90;;;;;;5075706;27;20230;-72
2021/12/17 08:14:47;;;;;;;26.23;8.57;;;5.60;99.90;;;;;;5084808;28;20257;-73
2021/12/17 08:18:07;;;;;;;19.80;7.20;;;5.60;99.90;;;;;;5085905;28;20218;-71
2021/12/17 08:27:43;;;;;;;24.60;8.73;;;5.70;99.90;;;;;;5086201;28;20661;-72
2021/12/17 08:30:38;;;;;;;24.40;8.03;;;5.60;99.90;;;;;;5090214;28;20215;-73
2021/12/17 08:33:36;;;;;;;28.40;8.40;;;5.60;99.90;;;;;;5087010;28;21136;-73
2021/12/17 08:36:28;;;;;;;21.37;8.40;;;5.70;99.90;;;;;;5099223;28;20227;-73
2021/12/17 08:39:18;;;;;;;24.50;9.07;;;5.70;99.90;;;;;;5083243;28;20237;-72
2021/12/17 08:42:11;;;;;;;22.60;9.73;;;5.70;99.90;;;;;;5085530;28;20405;-71
2021/12/17 08:45:00;;;;;;;29.23;9.30;;;5.60;99.90;;;;;;5085803;28;20235;-70
2021/12/17 08:48:07;;;;;;;23.87;7.70;;;5.60;99.90;;;;;;5098730;28;20223;-73
2021/12/17 08:51:08;;;;;;;25.63;9.50;;;5.50;99.90;;;;;;5089613;27;20221;-71
2021/12/17 08:53:59;;;;;;;26.10;8.17;;;5.40;99.90;;;;;;5102528;27;20215;-70
2021/12/17 08:56:55;;;;;;;19.63;8.47;;;5.50;99.90;;;;;;5083017;28;20635;-72
2021/12/17 08:59:47;;;;;;;18.30;8.40;;;5.40;99.90;;;;;;5085399;28;20214;-72
2021/12/17 09:02:46;;;;;;;22.07;8.57;;;5.40;99.90;;;;;;5083518;28;20310;-72
2021/12/17 09:05:55;;;;;;;25.77;9.03;;;5.60;99.90;;;;;;5095715;28;20309;-73
2021/12/17 09:08:54;;;;;;;21.80;9.60;;;5.60;99.90;;;;;;5086449;28;20219;-70
2021/12/17 09:11:44;;;;;;;23.73;8.67;;;5.50;99.90;;;;;;5090686;28;20314;-71
2021/12/17 09:14:48;;;;;;;22.50;8.47;;;5.50;99.90;;;;;;5097757;28;20210;-71
2021/12/17 09:17:59;;;;;;;20.90;7.80;;;5.60;99.90;;;;;;5098822;27;20252;-70
2021/12/17 09:20:49;;;;;;;22.60;8.23;;;5.60;99.90;;;;;;5085358;28;20219;-71
2021/12/17 09:23:44;;;;;;;21.27;8.13;;;5.60;99.90;;;;;;5082035;28;20616;-71
2021/12/17 09:26:34;;;;;;;22.93;8.50;;;5.60;99.90;;;;;;5098888;28;20301;-70
2021/12/17 09:29:23;;;;;;;19.63;8.93;;;5.60;99.90;;;;;;5084341;28;20605;-71
2021/12/17 09:32:16;;;;;;;20.37;8.67;;;5.70;99.90;;;;;;5083180;28;20223;-71
2021/12/17 09:35:06;;;;;;;21.97;9.20;;;5.70;99.90;;;;;;5084654;28;20223;-72
2021/12/17 09:37:55;;;;;;;18.43;7.90;;;5.70;99.90;;;;;;5082437;28;20226;-72
2021/12/17 09:40:44;;;;;;;25.73;8.53;;;5.70;99.90;;;;;;5095613;28;20226;-71
2021/12/17 09:43:35;;;;;;;27.50;8.80;;;5.70;99.90;;;;;;5095438;28;20221;-72
2021/12/17 09:46:24;;;;;;;28.53;8.30;;;5.80;99.90;;;;;;5095777;28;20355;-73
2021/12/17 09:49:17;;;;;;;28.20;8.50;;;5.80;99.90;;;;;;5097650;28;20226;-72
2021/12/17 09:52:07;;;;;;;27.20;9.23;;;5.80;99.90;;;;;;5092938;28;20356;-73
2021/12/17 09:54:57;;;;;;;24.57;9.40;;;5.80;99.90;;;;;;5076747;28;20234;-72
2021/12/17 09:57:46;;;;;;;23.13;8.70;;;5.80;99.90;;;;;;5090922;28;20321;-72
2021/12/17 10:00:34;;;;;;;28.27;8.93;;;5.80;99.90;;;;;;5094499;28;20233;-71
2021/12/17 10:03:23;;;;;;;24.43;8.93;;;5.80;99.90;;;;;;5096900;28;20801;-74
2021/12/17 10:06:24;;;;;;;19.33;7.83;;;5.90;99.90;;;;;;5095857;28;20690;-71
2021/12/17 10:09:13;;;;;;;21.87;8.30;;;5.90;99.90;;;;;;5082810;28;20219;-72
2021/12/17 10:12:04;;;;;;;19.83;7.77;;;6.10;99.90;;;;;;5094598;28;20215;-73
2021/12/17 10:15:02;;;;;;;20.93;8.30;;;6.20;99.90;;;;;;5079033;28;20686;-72
2021/12/17 10:17:54;;;;;;;23.27;8.03;;;6.10;99.90;;;;;;5104628;27;20222;-71
2021/12/17 10:20:57;;;;;;;19.20;8.40;;;6.20;99.90;;;;;;5096451;28;20215;-71
2021/12/17 10:23:47;;;;;;;20.67;8.07;;;6.20;99.90;;;;;;5082525;28;20697;-73
2021/12/17 10:26:44;;;;;;;19.10;7.60;;;6.20;99.90;;;;;;5102393;28;20235;-73
2021/12/17 10:29:33;;;;;;;26.67;8.47;;;6.20;99.90;;;;;;5101839;27;20250;-71
2021/12/17 10:32:23;;;;;;;24.03;7.93;;;6.30;99.90;;;;;;5085137;28;20215;-73
2021/12/17 10:35:14;;;;;;;23.23;7.77;;;6.40;99.90;;;;;;5099955;28;20583;-73
2021/12/17 10:38:05;;;;;;;16.77;7.20;;;6.20;99.90;;;;;;5103536;28;20341;-72
2021/12/17 10:41:02;;;;;;;17.73;7.70;;;6.20;99.90;;;;;;5104108;28;20955;-71
2021/12/17 10:43:56;;;;;;;16.90;6.13;;;6.20;99.90;;;;;;5100003;28;20214;-69
2021/12/17 10:47:06;;;;;;;16.80;7.30;;;6.20;99.90;;;;;;5082708;28;20732;-67
2021/12/17 10:49:55;;;;;;;18.47;6.57;;;6.00;99.90;;;;;;5101121;28;20318;-69
2021/12/17 10:52:55;;;;;;;19.87;6.70;;;6.10;99.90;;;;;;5101821;28;20220;-70
2021/12/17 10:55:47;;;;;;;19.17;6.63;;;6.20;99.90;;;;;;5099960;28;20245;-68
2021/12/17 10:58:37;;;;;;;20.20;7.07;;;6.20;99.90;;;;;;5089115;28;20695;-69
2021/12/17 11:01:31;;;;;;;26.13;6.80;;;6.20;99.90;;;;;;5100124;27;20667;-69
2021/12/17 11:04:23;;;;;;;21.60;7.03;;;6.20;99.90;;;;;;5087945;28;20233;-71
2021/12/17 11:07:14;;;;;;;23.17;7.30;;;6.20;99.90;;;;;;5101427;28;20443;-69
2021/12/17 11:10:04;;;;;;;17.53;6.60;;;6.40;99.90;;;;;;5087756;27;20365;-71
2021/12/17 11:12:53;;;;;;;23.13;6.80;;;6.40;99.90;;;;;;5101507;28;20234;-70
2021/12/17 11:15:43;;;;;;;18.30;6.33;;;6.40;99.90;;;;;;5087732;28;20227;-68
2021/12/17 11:18:32;;;;;;;15.47;6.43;;;6.30;99.90;;;;;;5059474;28;20235;-69
2021/12/17 11:21:21;;;;;;;17.63;6.27;;;6.60;99.90;;;;;;5061387;28;20690;-71
2021/12/17 11:24:10;;;;;;;17.60;6.47;;;6.40;99.90;;;;;;5062750;28;20220;-68
2021/12/17 11:26:59;;;;;;;17.60;6.10;;;6.50;99.90;;;;;;5069442;28;20758;-68
2021/12/17 11:29:48;;;;;;;14.30;6.10;;;6.40;99.90;;;;;;5062035;28;20224;-68
2021/12/17 11:32:39;;;;;;;16.40;5.83;;;6.70;99.90;;;;;;5051976;28;20333;-69
2021/12/17 11:35:28;;;;;;;16.23;5.60;;;6.60;99.90;;;;;;5064070;28;20220;-69
2021/12/17 11:38:25;;;;;;;16.27;5.33;;;6.60;99.90;;;;;;5059673;28;20212;-69
2021/12/17 11:41:16;;;;;;;13.93;5.20;;;6.60;99.90;;;;;;5060579;28;20236;-70
2021/12/17 11:44:09;;;;;;;18.07;5.97;;;6.50;99.90;;;;;;5063330;28;20232;-68
2021/12/17 11:47:03;;;;;;;16.80;5.50;;;6.50;99.90;;;;;;5064386;28;20220;-68
2021/12/17 11:49:53;;;;;;;16.70;6.03;;;6.50;99.90;;;;;;5062975;28;20259;-68
2021/12/17 11:52:45;;;;;;;15.07;5.40;;;6.50;99.90;;;;;;5059446;28;20224;-68
2021/12/17 11:55:41;;;;;;;15.90;6.10;;;6.50;99.90;;;;;;5047902;28;20216;-70
2021/12/17 11:58:51;;;;;;;18.57;5.03;;;6.60;99.90;;;;;;5039249;28;20240;-68
2021/12/17 12:01:53;;;;;;;15.13;4.87;;;6.60;99.90;;;;;;5059229;28;20332;-70
2021/12/17 12:04:58;;;;;;;12.57;5.33;;;6.50;99.90;;;;;;5056494;28;20216;-69
2021/12/17 12:07:47;;;;;;;14.63;5.07;;;6.50;99.90;;;;;;5048874;28;20216;-69
2021/12/17 12:10:37;;;;;;;14.30;4.73;;;6.50;99.90;;;;;;5072307;28;20528;-70
2021/12/17 12:13:35;;;;;;;12.97;4.17;;;6.50;99.90;;;;;;5051792;28;20330;-67
2021/12/17 12:16:25;;;;;;;14.27;4.33;;;6.50;99.90;;;;;;5071742;28;20722;-69
2021/12/17 12:19:14;;;;;;;14.90;4.70;;;6.50;99.90;;;;;;5100926;28;20552;-69
2021/12/17 12:22:08;;;;;;;9.30;4.27;;;6.60;99.90;;;;;;5075358;28;20216;-67
2021/12/17 12:25:30;;;;;;;14.87;4.70;;;6.60;99.90;;;;;;5096303;28;20443;-69
2021/12/17 12:28:56;;;;;;;12.13;4.57;;;6.60;99.90;;;;;;5081422;28;20245;-69
2021/12/17 12:31:51;;;;;;;14.30;4.67;;;6.50;99.90;;;;;;5098237;27;20294;-69
2021/12/17 12:34:43;;;;;;;13.47;4.63;;;6.50;99.90;;;;;;5098823;28;20223;-69
2021/12/17 12:37:36;;;;;;;14.80;5.13;;;6.60;99.90;;;;;;5100179;28;20246;-70
2021/12/17 12:40:32;;;;;;;13.13;4.53;;;6.40;99.90;;;;;;5078650;28;21039;-71
2021/12/17 12:43:32;;;;;;;14.10;4.27;;;6.50;99.90;;;;;;5079582;28;20215;-69
2021/12/17 12:46:54;;;;;;;11.97;4.33;;;6.50;99.90;;;;;;5062841;28;20234;-69
2021/12/17 12:49:46;;;;;;;12.67;4.43;;;6.40;99.90;;;;;;5096978;28;20693;-68
2021/12/17 12:52:39;;;;;;;10.23;3.43;;;6.40;99.90;;;;;;5099134;28;20207;-70
2021/12/17 12:55:32;;;;;;;12.77;4.10;;;6.30;99.90;;;;;;5083131;28;20214;-69
2021/12/17 12:58:27;;;;;;;12.50;4.30;;;6.30;99.90;;;;;;5099729;28;20222;-69
2021/12/17 13:01:19;;;;;;;11.50;4.00;;;6.30;99.90;;;;;;5080623;28;20216;-70
2021/12/17 13:04:10;;;;;;;11.93;5.17;;;6.30;99.90;;;;;;5081408;28;20310;-70
2021/12/17 13:06:59;;;;;;;17.97;6.10;;;6.20;99.90;;;;;;5098262;28;20777;-69
2021/12/17 13:09:49;;;;;;;14.43;4.13;;;6.20;99.90;;;;;;5095552;28;20239;-69
2021/12/17 13:12:38;;;;;;;11.10;4.10;;;6.30;99.90;;;;;;5083207;28;20237;-69
2021/12/17 13:15:44;;;;;;;11.87;4.33;;;6.30;99.90;;;;;;5097692;27;20229;-68
2021/12/17 13:22:02;;;;;;;10.23;4.37;;;6.30;99.90;;;;;;5097458;27;20223;-69
2021/12/17 13:24:52;;;;;;;12.83;4.20;;;6.20;99.90;;;;;;5099847;27;20311;-70
2021/12/17 13:27:53;;;;;;;12.53;4.07;;;6.20;99.90;;;;;;5083040;28;20222;-70
2021/12/17 13:30:44;;;;;;;17.20;4.60;;;6.20;99.90;;;;;;5096400;28;20910;-70
2021/12/17 13:33:37;;;;;;;13.10;4.43;;;6.20;99.90;;;;;;5086560;28;20223;-68
2021/12/17 13:36:27;;;;;;;14.93;4.57;;;6.10;99.90;;;;;;5099074;28;20435;-70
2021/12/17 13:39:16;;;;;;;10.63;3.80;;;6.10;99.90;;;;;;5097024;28;20249;-69
2021/12/17 13:42:08;;;;;;;13.17;4.57;;;6.10;99.90;;;;;;5083720;28;20238;-70
2021/12/17 13:44:59;;;;;;;12.03;3.63;;;6.10;99.90;;;;;;5085834;28;20310;-70
2021/12/17 13:47:51;;;;;;;13.17;4.23;;;6.20;99.90;;;;;;5081457;28;20691;-69
2021/12/17 13:50:44;;;;;;;12.53;4.33;;;6.10;99.90;;;;;;5095579;28;20222;-69
2021/12/17 13:53:32;;;;;;;12.97;4.70;;;6.10;99.90;;;;;;5078558;28;20306;-69
2021/12/17 13:56:41;;;;;;;12.77;4.50;;;6.20;99.90;;;;;;5083373;28;20324;-69
2021/12/17 13:59:34;;;;;;;13.10;4.30;;;6.10;99.90;;;;;;5097677;28;20222;-69
2021/12/17 14:02:24;;;;;;;13.37;4.37;;;6.00;99.90;;;;;;5095412;28;20393;-70
2021/12/17 14:05:20;;;;;;;11.37;4.87;;;6.00;99.90;;;;;;5084148;28;20658;-69
2021/12/17 14:08:10;;;;;;;12.03;4.40;;;6.00;99.90;;;;;;5085309;28;20322;-69
2021/12/17 14:10:59;;;;;;;12.17;4.90;;;6.10;99.90;;;;;;5078851;28;20267;-68
2021/12/17 14:13:48;;;;;;;12.30;4.80;;;6.00;99.90;;;;;;5091106;28;20501;-69
2021/12/17 14:16:41;;;;;;;15.10;5.13;;;6.00;99.90;;;;;;5097655;28;20725;-70
2021/12/17 14:19:44;;;;;;;16.60;4.57;;;6.00;99.90;;;;;;5094243;28;20226;-70
2021/12/17 14:22:34;;;;;;;12.13;4.20;;;6.10;99.90;;;;;;5097688;28;20222;-71
2021/12/17 14:25:25;;;;;;;9.93;4.60;;;6.00;99.90;;;;;;5083069;28;20224;-70
2021/12/17 14:28:21;;;;;;;12.40;4.67;;;6.10;99.90;;;;;;5081310;28;20231;-68
2021/12/17 14:31:15;;;;;;;16.23;4.77;;;6.10;99.90;;;;;;5094910;28;20283;-69
2021/12/17 14:34:06;;;;;;;11.20;4.83;;;6.10;99.90;;;;;;5096469;28;20231;-70
2021/12/17 14:37:02;;;;;;;12.00;4.70;;;6.10;99.90;;;;;;5094329;28;20769;-70
2021/12/17 14:39:53;;;;;;;17.93;5.03;;;6.10;99.90;;;;;;5098202;28;20226;-69
2021/12/17 14:42:46;;;;;;;13.97;4.50;;;6.00;99.90;;;;;;5086588;28;20230;-71
2021/12/17 14:45:42;;;;;;;12.23;4.63;;;6.00;99.90;;;;;;5097371;28;20291;-68
2021/12/17 14:48:41;;;;;;;11.90;5.10;;;6.00;99.90;;;;;;5095263;28;20214;-70
2021/12/17 15:01:12;;;;;;;14.97;4.77;;;6.00;99.90;;;;;;5099756;28;20233;-69
2021/12/17 15:04:00;;;;;;;13.33;4.53;;;6.00;99.90;;;;;;5084215;28;20222;-70
2021/12/17 15:06:51;;;;;;;15.23;4.87;;;6.00;99.90;;;;;;5099631;28;20219;-69
2021/12/17 15:09:43;;;;;;;14.27;5.63;;;6.10;99.90;;;;;;5088089;28;20222;-70
2021/12/17 15:12:55;;;;;;;17.00;5.47;;;6.00;99.90;;;;;;5099972;27;20242;-69
2021/12/17 15:15:44;;;;;;;11.83;5.27;;;6.00;99.90;;;;;;5100602;28;20215;-70
2021/12/17 15:18:33;;;;;;;15.80;4.80;;;6.10;99.90;;;;;;5089330;28;20222;-68
2021/12/17 15:21:22;;;;;;;11.67;5.00;;;6.00;99.90;;;;;;5104698;28;20212;-68
2021/12/17 15:24:13;;;;;;;12.40;4.97;;;6.00;99.90;;;;;;5094456;28;20218;-68
2021/12/17 15:27:02;;;;;;;14.37;4.87;;;6.10;99.90;;;;;;5086349;28;20219;-67
2021/12/17 15:29:51;;;;;;;17.43;5.67;;;6.10;99.90;;;;;;5100573;27;20212;-70
2021/12/17 15:32:40;;;;;;;15.00;5.17;;;6.10;99.90;;;;;;5092855;27;20234;-71
2021/12/17 15:35:30;;;;;;;15.93;5.17;;;6.00;99.90;;;;;;5086362;28;20230;-70
2021/12/17 15:38:19;;;;;;;15.60;6.40;;;6.00;99.90;;;;;;5098360;28;20211;-75
2021/12/17 15:41:10;;;;;;;12.23;4.43;;;6.00;99.90;;;;;;5081250;28;20730;-69
2021/12/17 15:43:58;;;;;;;12.77;4.90;;;6.00;99.90;;;;;;5098706;27;20215;-70
2021/12/17 15:46:52;;;;;;;11.60;4.60;;;6.10;99.90;;;;;;5096800;27;20788;-71
2021/12/17 15:49:41;;;;;;;13.03;5.50;;;6.10;99.90;;;;;;5098183;28;20238;-72
2021/12/17 15:52:31;;;;;;;14.83;5.53;;;6.10;99.90;;;;;;5099633;28;20789;-70
2021/12/17 15:55:26;;;;;;;13.43;4.63;;;6.20;99.90;;;;;;5098603;28;20227;-70
2021/12/17 15:58:16;;;;;;;13.63;5.77;;;6.10;99.90;;;;;;5080280;28;20245;-68
2021/12/17 16:01:09;;;;;;;17.37;5.30;;;6.10;99.90;;;;;;5083075;28;20253;-69
2021/12/17 16:03:58;;;;;;;15.57;4.97;;;6.10;99.90;;;;;;5098753;28;20305;-70
2021/12/17 16:06:51;;;;;;;12.33;5.17;;;6.10;99.90;;;;;;5086166;28;20283;-69
2021/12/17 16:22:07;;;;;;;13.80;5.17;;;6.20;99.90;;;;;;5098987;28;20214;-69
2021/12/17 16:24:55;;;;;;;12.50;4.67;;;6.10;99.90;;;;;;5098869;28;20226;-69
2021/12/17 16:27:44;;;;;;;11.47;4.27;;;6.10;99.90;;;;;;5088219;28;20623;-69
2021/12/17 16:30:33;;;;;;;9.57;5.10;;;6.10;99.90;;;;;;5098720;28;20215;-71
2021/12/17 16:33:23;;;;;;;14.30;5.13;;;6.10;99.90;;;;;;5079343;28;20460;-72
2021/12/17 16:36:13;;;;;;;10.43;3.60;;;6.00;99.90;;;;;;5095224;28;20718;-70
2021/12/17 16:39:04;;;;;;;13.10;4.57;;;6.10;99.90;;;;;;5101144;28;20334;-71
2021/12/17 16:41:54;;;;;;;9.97;4.63;;;6.10;99.90;;;;;;5099481;28;20664;-70
2021/12/17 16:45:01;;;;;;;13.30;4.47;;;6.10;99.90;;;;;;5096610;27;20219;-70
2021/12/17 16:47:51;;;;;;;11.00;4.30;;;6.10;99.90;;;;;;5086144;28;20626;-69
2021/12/17 16:50:41;;;;;;;12.83;4.37;;;6.20;99.90;;;;;;5079910;28;20231;-70
2021/12/17 16:53:30;;;;;;;16.03;4.60;;;6.20;99.90;;;;;;5083741;28;20226;-70
2021/12/17 16:56:20;;;;;;;11.23;4.90;;;6.20;99.90;;;;;;5100546;28;20234;-70
2021/12/17 16:59:09;;;;;;;11.00;4.20;;;6.20;99.90;;;;;;5096128;28;20242;-71
2021/12/17 17:01:58;;;;;;;9.27;4.27;;;6.20;99.90;;;;;;5098320;28;20237;-71
2021/12/17 17:04:46;;;;;;;13.23;4.30;;;6.30;99.90;;;;;;5080295;28;20698;-70
2021/12/17 17:07:36;;;;;;;11.63;3.93;;;6.30;99.90;;;;;;5098431;27;20234;-71
2021/12/17 17:10:29;;;;;;;11.07;4.70;;;6.30;99.90;;;;;;5079616;28;20229;-71
2021/12/17 17:13:19;;;;;;;10.30;3.80;;;6.30;99.90;;;;;;5097819;28;20253;-69
2021/12/17 17:16:07;;;;;;;11.67;4.17;;;6.20;99.90;;;;;;5098085;28;20237;-69
2021/12/17 17:18:56;;;;;;;12.00;4.20;;;6.20;99.90;;;;;;5097009;28;20229;-70
2021/12/17 17:21:45;;;;;;;13.10;4.50;;;6.30;99.90;;;;;;5097364;28;20728;-70
2021/12/17 17:24:35;;;;;;;13.40;3.70;;;6.10;99.90;;;;;;5084615;28;20353;-69
2021/12/17 17:27:23;;;;;;;12.07;4.30;;;6.10;99.90;;;;;;5096395;27;20915;-70
2021/12/17 17:30:13;;;;;;;9.10;4.87;;;6.10;99.90;;;;;;5085082;28;20318;-70
2021/12/17 17:33:03;;;;;;;12.53;4.27;;;6.10;99.90;;;;;;5096122;28;20232;-70
2021/12/17 17:35:54;;;;;;;10.17;3.60;;;6.00;99.90;;;;;;5096167;28;20817;-70
2021/12/17 17:38:43;;;;;;;10.67;4.20;;;6.00;99.90;;;;;;5081740;28;20215;-70
2021/12/17 17:41:33;;;;;;;9.13;3.73;;;5.90;99.90;;;;;;5093960;28;20227;-70